createdAt,value
2022-09-28T00:01:22.197Z,73.17
2022-09-28T00:03:51.930Z,73.37
2022-09-28T00:06:21.691Z,74.21
2022-09-28T00:08:48.943Z,74.30
2022-09-28T00:11:16.740Z,74.32
2022-09-28T00:13:44.675Z,75.03
2022-09-28T00:16:14.805Z,75.08
2022-09-28T00:18:41.817Z,75.13
2022-09-28T00:21:11.767Z,74.81
2022-09-28T00:23:39.907Z,74.75
2022-09-28T00:26:06.894Z,76.17
2022-09-28T00:28:33.628Z,76.77
2022-09-28T00:31:01.429Z,76.76
2022-09-28T00:33:28.384Z,76.64
2022-09-28T00:35:57.151Z,77.29
2022-09-28T00:38:27.245Z,77.23
2022-09-28T00:40:54.490Z,77.61
2022-09-28T00:43:22.483Z,77.13
2022-09-28T00:46:06.762Z,78.05
2022-09-28T00:48:39.044Z,78.53
2022-09-28T00:51:12.611Z,76.91
2022-09-28T00:53:42.887Z,77.84
2022-09-28T00:56:17.259Z,78.89
2022-09-28T00:58:48.584Z,78.04
2022-09-28T01:01:15.883Z,77.59
2022-09-28T01:03:42.986Z,78.70
2022-09-28T01:06:10.550Z,78.17
2022-09-28T01:08:39.679Z,78.87
2022-09-28T01:11:06.544Z,79.63
2022-09-28T01:13:34.030Z,79.33
2022-09-28T01:16:19.272Z,78.94
2022-09-28T01:19:06.678Z,78.72
2022-09-28T01:21:50.596Z,78.81
2022-09-28T01:24:23.369Z,78.86
2022-09-28T01:27:11.589Z,78.69
2022-09-28T01:29:46.632Z,78.01
2022-09-28T01:32:56.219Z,78.50
2022-09-28T01:35:35.601Z,79.12
2022-09-28T01:38:07.780Z,78.90
2022-09-28T01:40:36.719Z,79.65
2022-09-28T01:43:08.762Z,80.53
2022-09-28T01:45:44.662Z,79.28
2022-09-28T01:48:15.725Z,79.36
2022-09-28T01:50:45.154Z,79.59
2022-09-28T01:53:28.651Z,79.88
2022-09-28T01:56:03.103Z,79.84
2022-09-28T01:58:40.670Z,79.52
2022-09-28T02:01:15.716Z,79.75
2022-09-28T02:03:52.994Z,79.96
2022-09-28T02:06:32.269Z,80.50
2022-09-28T02:09:17.018Z,79.47
2022-09-28T02:11:53.451Z,79.38
2022-09-28T02:14:23.034Z,79.70
2022-09-28T02:16:53.684Z,79.79
2022-09-28T02:19:28.502Z,80.61
2022-09-28T02:22:08.961Z,81.55
2022-09-28T02:24:41.075Z,81.10
2022-09-28T02:27:28.532Z,81.33
2022-09-28T02:29:55.447Z,80.64
2022-09-28T02:32:25.073Z,80.66
2022-09-28T02:34:51.902Z,80.74
2022-09-28T02:37:18.723Z,80.17
2022-09-28T02:39:45.499Z,80.63
2022-09-28T02:42:21.411Z,79.91
2022-09-28T02:44:57.757Z,79.35
2022-09-28T02:47:49.396Z,78.87
2022-09-28T02:50:35.512Z,79.13
2022-09-28T02:53:28.603Z,78.77
2022-09-28T02:56:41.734Z,77.30
2022-09-28T02:59:17.737Z,76.98
2022-09-28T03:02:09.969Z,77.07
2022-09-28T03:05:09.990Z,76.29
2022-09-28T03:07:39.650Z,76.49
2022-09-28T03:10:33.009Z,76.45
2022-09-28T03:13:01.716Z,76.17
2022-09-28T03:15:33.898Z,76.38
2022-09-28T03:18:01.387Z,76.83
2022-09-28T03:20:31.589Z,76.52
2022-09-28T03:23:22.739Z,75.77
2022-09-28T03:25:45.275Z,77.17
2022-09-28T03:28:12.079Z,78.47
2022-09-28T03:30:40.930Z,78.15
2022-09-28T03:33:08.082Z,77.80
2022-09-28T03:35:35.023Z,77.06
2022-09-28T03:38:02.543Z,77.08
2022-09-28T03:40:31.657Z,77.35
2022-09-28T03:43:00.483Z,77.54
2022-09-28T03:45:27.662Z,77.18
2022-09-28T03:47:54.651Z,77.01
2022-09-28T03:50:21.692Z,77.41
2022-09-28T03:52:48.654Z,78.88
2022-09-28T03:55:15.726Z,77.32
2022-09-28T03:57:42.881Z,78.81
2022-09-28T04:00:10.396Z,79.37
2022-09-28T04:02:43.214Z,78.82
2022-09-28T04:05:10.623Z,79.31
2022-09-28T04:07:37.982Z,79.17
2022-09-28T04:10:05.133Z,79.44
2022-09-28T04:12:32.107Z,78.53
2022-09-28T04:14:58.837Z,78.52
2022-09-28T04:17:25.774Z,78.43
2022-09-28T04:19:52.795Z,79.02
2022-09-28T04:22:26.496Z,79.32
2022-09-28T04:24:53.566Z,78.93
2022-09-28T04:27:20.233Z,78.87
2022-09-28T04:29:48.966Z,77.43
2022-09-28T04:32:16.673Z,78.05
2022-09-28T04:34:44.437Z,79.12
2022-09-28T04:37:12.340Z,78.39
2022-09-28T04:39:39.851Z,78.93
2022-09-28T04:42:10.179Z,79.31
2022-09-28T04:44:39.353Z,78.56
2022-09-28T04:47:09.017Z,80.32
2022-09-28T04:49:54.474Z,80.13
2022-09-28T04:52:28.037Z,79.89
2022-09-28T04:54:54.918Z,80.94
2022-09-28T04:57:24.218Z,81.36
2022-09-28T04:59:50.938Z,80.75
2022-09-28T05:02:18.589Z,80.86
2022-09-28T05:05:05.807Z,79.74
2022-09-28T05:07:48.610Z,79.59
2022-09-28T05:10:15.405Z,79.69
2022-09-28T05:12:42.317Z,80.24
2022-09-28T05:15:10.942Z,79.68
2022-09-28T05:17:37.751Z,78.92
2022-09-28T05:20:20.459Z,79.66
2022-09-28T05:22:47.712Z,79.80
2022-09-28T05:25:14.512Z,79.84
2022-09-28T05:28:03.665Z,80.58
2022-09-28T05:30:48.887Z,79.40
2022-09-28T05:33:41.041Z,79.77
2022-09-28T05:36:12.869Z,80.48
2022-09-28T05:38:39.660Z,81.10
2022-09-28T05:41:07.010Z,81.15
2022-09-28T05:43:33.977Z,80.90
2022-09-28T05:46:03.464Z,81.80
2022-09-28T05:48:30.297Z,81.39
2022-09-28T05:50:57.602Z,81.79
2022-09-28T05:53:24.870Z,80.49
2022-09-28T05:55:51.874Z,80.14
2022-09-28T05:58:18.654Z,79.47
2022-09-28T06:00:45.564Z,80.11
2022-09-28T06:03:14.030Z,80.00
2022-09-28T06:05:41.641Z,79.47
2022-09-28T06:08:10.296Z,78.99
2022-09-28T06:10:38.230Z,79.04
2022-09-28T06:13:05.414Z,79.17
2022-09-28T06:15:34.538Z,78.71
2022-09-28T06:18:06.680Z,79.46
2022-09-28T06:20:41.340Z,77.62
2022-09-28T06:23:13.983Z,76.91
2022-09-28T06:25:41.413Z,76.31
2022-09-28T06:28:15.750Z,75.99
2022-09-28T06:30:43.897Z,75.87
2022-09-28T06:33:16.594Z,76.26
2022-09-28T06:35:43.480Z,74.81
2022-09-28T06:38:10.671Z,74.97
2022-09-28T06:40:38.115Z,74.66
2022-09-28T06:43:07.121Z,75.17
2022-09-28T06:45:54.163Z,73.26
2022-09-28T06:48:39.931Z,73.30
2022-09-28T06:51:09.413Z,71.67
2022-09-28T06:53:44.203Z,70.91
2022-09-28T06:56:36.946Z,69.65
2022-09-28T06:59:04.033Z,70.48
2022-09-28T07:01:30.910Z,68.24
2022-09-28T07:04:05.790Z,67.93
2022-09-28T07:06:51.136Z,69.15
2022-09-28T07:09:48.146Z,68.54
2022-09-28T07:12:40.226Z,68.43
2022-09-28T07:15:32.377Z,68.12
2022-09-28T07:18:03.996Z,68.19
2022-09-28T07:20:39.697Z,68.10
2022-09-28T07:23:19.054Z,67.37
2022-09-28T07:26:08.886Z,68.42
2022-09-28T07:28:54.396Z,67.91
2022-09-28T07:31:31.007Z,67.71
2022-09-28T07:34:11.375Z,67.69
2022-09-28T07:36:55.461Z,67.72
2022-09-28T07:39:22.295Z,67.95
2022-09-28T07:41:49.159Z,68.14
2022-09-28T07:44:16.588Z,68.09
2022-09-28T07:46:44.820Z,67.47
2022-09-28T07:49:21.723Z,67.55
2022-09-28T07:52:24.535Z,68.67
2022-09-28T07:55:18.398Z,69.16
2022-09-28T07:57:59.406Z,69.35
2022-09-28T08:00:45.335Z,69.15
2022-09-28T08:03:12.085Z,70.14
2022-09-28T08:05:38.735Z,69.30
2022-09-28T08:08:05.510Z,70.40
2022-09-28T08:10:33.460Z,70.07
2022-09-28T08:13:15.872Z,70.31
2022-09-28T08:15:55.238Z,69.87
2022-09-28T08:19:00.714Z,70.25
2022-09-28T08:21:27.644Z,70.35
2022-09-28T08:23:54.540Z,70.42
2022-09-28T08:26:21.321Z,70.60
2022-09-28T08:28:49.542Z,70.61
2022-09-28T08:31:44.069Z,70.91
2022-09-28T08:34:43.258Z,70.85
2022-09-28T08:37:23.483Z,70.07
2022-09-28T08:40:20.015Z,70.05
2022-09-28T08:43:07.426Z,70.94
2022-09-28T08:45:53.225Z,70.28
2022-09-28T08:49:20.559Z,71.67
2022-09-28T08:52:11.217Z,72.34
2022-09-28T08:55:17.165Z,73.35
2022-09-28T08:57:55.938Z,71.09
2022-09-28T09:00:40.400Z,69.92
2022-09-28T09:03:13.090Z,69.56
2022-09-28T09:06:03.173Z,69.91
2022-09-28T09:09:24.142Z,69.76
2022-09-28T09:12:07.086Z,69.76
2022-09-28T09:14:55.502Z,70.10
2022-09-28T09:17:36.445Z,70.92
2022-09-28T09:20:42.151Z,70.62
2022-09-28T09:23:35.776Z,70.98
2022-09-28T09:26:20.686Z,70.50
2022-09-28T09:29:16.042Z,70.31
2022-09-28T09:32:16.652Z,70.65
2022-09-28T09:34:50.015Z,70.32
2022-09-28T09:38:24.147Z,70.48
2022-09-28T09:41:47.907Z,70.30
2022-09-28T09:44:52.043Z,70.41
2022-09-28T09:47:59.362Z,70.66
2022-09-28T09:50:39.943Z,69.04
2022-09-28T09:53:22.639Z,69.89
2022-09-28T09:55:53.839Z,68.39
2022-09-28T09:58:58.631Z,68.26
2022-09-28T10:01:38.480Z,67.62
2022-09-28T10:04:41.035Z,67.57
2022-09-28T10:07:35.000Z,67.70
2022-09-28T10:10:03.109Z,67.18
2022-09-28T10:12:45.933Z,67.30
2022-09-28T10:15:18.812Z,65.73
2022-09-28T10:18:06.558Z,66.97
2022-09-28T10:20:52.003Z,66.48
2022-09-28T10:23:32.280Z,66.00
2022-09-28T10:26:14.693Z,65.89
2022-09-28T10:28:59.175Z,65.25
2022-09-28T10:31:49.657Z,63.88
2022-09-28T10:34:27.965Z,63.81
2022-09-28T10:37:03.225Z,64.03
2022-09-28T10:39:55.291Z,62.89
2022-09-28T10:42:27.114Z,61.28
2022-09-28T10:44:55.938Z,59.61
2022-09-28T10:47:35.832Z,58.46
2022-09-28T10:50:24.345Z,58.21
2022-09-28T10:53:19.313Z,58.26
2022-09-28T10:56:23.204Z,59.10
2022-09-28T10:59:24.458Z,57.66
2022-09-28T11:01:56.150Z,58.46
2022-09-28T11:04:27.774Z,58.13
2022-09-28T11:06:57.451Z,59.41
2022-09-28T11:09:41.583Z,59.88
2022-09-28T11:12:15.993Z,59.58
2022-09-28T11:14:43.803Z,58.98
2022-09-28T11:17:28.867Z,58.75
2022-09-28T11:19:58.956Z,59.59
2022-09-28T11:22:31.888Z,59.21
2022-09-28T11:25:20.874Z,59.19
2022-09-28T11:27:50.931Z,59.23
2022-09-28T11:30:23.561Z,58.82
2022-09-28T11:33:12.567Z,58.48
2022-09-28T11:36:13.986Z,59.57
2022-09-28T11:38:59.267Z,58.31
2022-09-28T11:42:16.193Z,59.02
2022-09-28T11:45:10.058Z,58.49
2022-09-28T11:48:12.111Z,59.07
2022-09-28T11:50:55.535Z,58.90
2022-09-28T11:53:36.276Z,59.28
2022-09-28T11:56:14.880Z,57.98
2022-09-28T11:58:57.770Z,58.00
2022-09-28T12:01:45.415Z,57.04
2022-09-28T12:04:36.103Z,56.88
2022-09-28T12:07:22.883Z,55.85
2022-09-28T12:10:00.213Z,56.81
2022-09-28T12:12:47.409Z,56.16
2022-09-28T12:15:22.645Z,56.56
2022-09-28T12:18:22.063Z,56.40
2022-09-28T12:21:15.639Z,56.61
2022-09-28T12:23:44.973Z,57.13
2022-09-28T12:26:28.478Z,56.92
2022-09-28T12:29:00.856Z,56.50
2022-09-28T12:31:42.676Z,55.71
2022-09-28T12:34:09.950Z,56.25
2022-09-28T12:36:55.799Z,56.64
2022-09-28T12:39:58.538Z,56.34
2022-09-28T12:42:43.668Z,57.07
2022-09-28T12:45:38.702Z,57.95
2022-09-28T12:48:27.100Z,56.93
2022-09-28T12:51:08.960Z,56.79
2022-09-28T12:54:04.051Z,56.78
2022-09-28T12:56:39.811Z,57.91
2022-09-28T12:59:19.642Z,56.61
2022-09-28T13:02:20.225Z,55.94
2022-09-28T13:05:03.412Z,56.75
2022-09-28T13:07:56.321Z,56.29
2022-09-28T13:10:26.009Z,56.00
2022-09-28T13:13:17.104Z,55.93
2022-09-28T13:15:57.450Z,55.25
2022-09-28T13:18:38.455Z,54.44
2022-09-28T13:21:26.458Z,53.32
2022-09-28T13:24:14.411Z,51.72
2022-09-28T13:26:47.627Z,50.83
2022-09-28T13:29:17.959Z,50.71
2022-09-28T13:31:49.312Z,50.01
2022-09-28T13:34:23.658Z,51.32
2022-09-28T13:37:13.851Z,50.52
2022-09-28T13:39:47.918Z,46.89
2022-09-28T13:42:48.652Z,45.90
2022-09-28T13:45:21.081Z,46.00
2022-09-28T13:47:59.934Z,47.35
2022-09-28T13:50:30.366Z,47.88
2022-09-28T13:53:15.811Z,47.26
2022-09-28T13:56:13.705Z,46.15
2022-09-28T13:59:09.002Z,47.64
2022-09-28T14:01:53.714Z,46.89
2022-09-28T14:04:23.994Z,47.51
2022-09-28T14:06:56.883Z,46.73
2022-09-28T14:09:27.472Z,47.13
2022-09-28T14:12:01.873Z,46.54
2022-09-28T14:14:43.302Z,47.99
2022-09-28T14:17:19.215Z,47.76
2022-09-28T14:20:00.793Z,46.56
2022-09-28T14:22:48.904Z,47.96
2022-09-28T14:25:28.264Z,46.10
2022-09-28T14:28:16.901Z,45.65
2022-09-28T14:30:43.663Z,45.47
2022-09-28T14:33:28.058Z,45.27
2022-09-28T14:36:05.397Z,45.24
2022-09-28T14:38:37.905Z,45.98
2022-09-28T14:41:06.367Z,46.42
2022-09-28T14:43:45.333Z,46.73
2022-09-28T14:46:12.146Z,46.96
2022-09-28T14:48:51.621Z,47.49
2022-09-28T14:51:27.489Z,47.66
2022-09-28T14:53:59.877Z,48.21
2022-09-28T14:56:32.590Z,48.34
2022-09-28T14:59:00.680Z,48.55
2022-09-28T15:01:28.209Z,50.48
2022-09-28T15:03:59.321Z,49.38
2022-09-28T15:06:26.395Z,49.62
2022-09-28T15:08:53.169Z,49.61
2022-09-28T15:11:26.298Z,50.46
2022-09-28T15:14:06.311Z,51.29
2022-09-28T15:16:33.745Z,50.94
2022-09-28T15:19:12.452Z,50.84
2022-09-28T15:21:42.030Z,51.15
2022-09-28T15:24:38.323Z,50.08
2022-09-28T15:27:15.543Z,50.83
2022-09-28T15:30:03.319Z,50.72
2022-09-28T15:32:30.141Z,51.25
2022-09-28T15:34:56.957Z,51.18
2022-09-28T15:37:29.585Z,51.48
2022-09-28T15:39:58.345Z,50.75
2022-09-28T15:42:25.393Z,50.56
2022-09-28T15:45:02.117Z,50.01
2022-09-28T15:47:30.484Z,49.55
2022-09-28T15:50:02.264Z,49.94
2022-09-28T15:52:44.805Z,50.62
2022-09-28T15:55:35.908Z,50.23
2022-09-28T15:58:05.497Z,50.85
2022-09-28T16:00:32.306Z,52.48
2022-09-28T16:03:07.889Z,51.60
2022-09-28T16:05:57.954Z,51.67
2022-09-28T16:08:30.858Z,53.58
2022-09-28T16:11:38.079Z,54.06
2022-09-28T16:14:15.956Z,51.28
2022-09-28T16:16:49.555Z,52.13
2022-09-28T16:19:28.557Z,52.70
2022-09-28T16:21:57.861Z,53.01
2022-09-28T16:24:28.097Z,53.10
2022-09-28T16:27:23.593Z,53.07
2022-09-28T16:30:21.336Z,53.09
2022-09-28T16:33:05.981Z,54.16
2022-09-28T16:35:35.501Z,53.98
2022-09-28T16:38:15.882Z,54.28
2022-09-28T16:40:51.109Z,54.55
2022-09-28T16:43:27.642Z,54.79
2022-09-28T16:45:59.353Z,54.99
2022-09-28T16:48:29.129Z,55.54
2022-09-28T16:50:57.271Z,55.55
2022-09-28T16:53:24.922Z,55.53
2022-09-28T16:55:51.697Z,56.14
2022-09-28T16:58:18.438Z,56.41
2022-09-28T17:00:45.222Z,55.56
2022-09-28T17:03:17.097Z,56.33
2022-09-28T17:05:46.474Z,56.36
2022-09-28T17:08:16.108Z,56.42
2022-09-28T17:13:44.942Z,56.55
2022-09-28T17:16:18.554Z,57.47
2022-09-28T17:18:45.701Z,56.65
2022-09-28T17:21:17.363Z,57.19
2022-09-28T17:23:45.328Z,57.29
2022-09-28T17:26:28.415Z,57.54
2022-09-28T17:28:55.215Z,57.38
2022-09-28T17:31:22.148Z,57.94
2022-09-28T17:33:49.001Z,57.86
2022-09-28T17:36:18.427Z,58.23
2022-09-28T17:38:50.995Z,58.29
2022-09-28T17:41:20.832Z,58.71
2022-09-28T17:43:48.455Z,59.10
2022-09-28T17:46:30.977Z,59.42
2022-09-28T17:48:59.837Z,59.51
2022-09-28T17:51:35.045Z,59.57
2022-09-28T17:54:02.295Z,59.80
2022-09-28T17:56:32.477Z,60.26
2022-09-28T17:59:02.403Z,60.67
2022-09-28T18:01:30.386Z,60.62
2022-09-28T18:04:00.676Z,60.84
2022-09-28T18:06:27.917Z,61.04
2022-09-28T18:08:54.777Z,61.42
2022-09-28T18:11:21.689Z,61.46
2022-09-28T18:13:48.526Z,61.93
2022-09-28T18:16:15.637Z,62.23
2022-09-28T18:18:42.508Z,62.29
2022-09-28T18:21:10.463Z,62.94
2022-09-28T18:23:38.913Z,63.04
2022-09-28T18:26:15.401Z,63.58
2022-09-28T18:28:42.680Z,63.39
2022-09-28T18:31:13.473Z,63.90
2022-09-28T18:33:41.085Z,63.96
2022-09-28T18:36:08.554Z,64.40
2022-09-28T18:38:36.505Z,63.70
2022-09-28T18:41:14.629Z,64.11
2022-09-28T18:43:43.117Z,64.87
2022-09-28T18:46:11.597Z,64.35
2022-09-28T18:48:39.073Z,64.26
2022-09-28T18:51:10.725Z,64.94
2022-09-28T18:53:38.494Z,64.73
2022-09-28T18:56:10.785Z,64.69
2022-09-28T18:58:39.514Z,64.76
2022-09-28T19:01:29.083Z,64.82
2022-09-28T19:03:55.998Z,64.62
2022-09-28T19:06:22.998Z,64.79
2022-09-28T19:08:54.687Z,64.78
2022-09-28T19:11:21.909Z,65.55
2022-09-28T19:13:48.709Z,66.01
2022-09-28T19:16:30.639Z,65.78
2022-09-28T19:18:59.208Z,66.28
2022-09-28T19:21:26.500Z,66.75
2022-09-28T19:23:53.340Z,67.13
2022-09-28T19:26:22.874Z,68.26
2022-09-28T19:28:50.210Z,68.16
2022-09-28T19:31:17.437Z,68.91
2022-09-28T19:33:44.190Z,69.04
2022-09-28T19:36:14.812Z,69.43
2022-09-28T19:38:41.809Z,69.63
2022-09-28T19:41:13.276Z,69.50
2022-09-28T19:43:40.102Z,69.84
2022-09-28T19:46:07.359Z,70.08
2022-09-28T19:48:34.661Z,69.08
2022-09-28T19:51:06.618Z,68.83
2022-09-28T19:53:35.359Z,68.94
2022-09-28T19:56:03.773Z,68.78
2022-09-28T19:58:34.526Z,67.88
2022-09-28T20:01:06.593Z,67.55
2022-09-28T20:03:35.492Z,66.94
2022-09-28T20:06:03.126Z,66.52
2022-09-28T20:08:29.999Z,66.91
2022-09-28T20:10:58.513Z,66.77
2022-09-28T20:13:36.857Z,66.39
2022-09-28T20:16:08.995Z,66.61
2022-09-28T20:18:37.356Z,66.35
2022-09-28T20:21:09.437Z,66.62
2022-09-28T20:23:36.301Z,66.51
2022-09-28T20:26:04.759Z,66.92
2022-09-28T20:28:33.364Z,66.84
2022-09-28T20:31:12.634Z,65.79
2022-09-28T20:33:39.818Z,66.12
2022-09-28T20:36:11.656Z,65.99
2022-09-28T20:38:38.808Z,66.52
2022-09-28T20:41:06.379Z,66.72
2022-09-28T20:43:33.449Z,66.79
2022-09-28T20:46:05.081Z,67.21
2022-09-28T20:48:32.550Z,67.28
2022-09-28T20:51:01.839Z,68.29
2022-09-28T20:53:30.410Z,67.81
2022-09-28T20:56:02.753Z,67.39
2022-09-28T20:58:30.295Z,67.56
2022-09-28T21:01:27.079Z,68.29
2022-09-28T21:03:56.416Z,68.37
2022-09-28T21:06:25.795Z,68.58
2022-09-28T21:08:53.274Z,69.05
2022-09-28T21:11:22.495Z,69.04
2022-09-28T21:13:53.105Z,69.49
2022-09-28T21:16:20.247Z,69.54
2022-09-28T21:18:48.234Z,70.06
2022-09-28T21:21:17.399Z,70.71
2022-09-28T21:23:44.487Z,71.46
2022-09-28T21:26:22.609Z,71.86
2022-09-28T21:28:52.846Z,72.01
2022-09-28T21:31:22.712Z,71.37
2022-09-28T21:33:52.969Z,71.79
2022-09-28T21:36:19.826Z,72.41
2022-09-28T21:38:46.671Z,71.99
2022-09-28T21:41:13.426Z,72.38
2022-09-28T21:43:40.159Z,72.79
2022-09-28T21:46:07.271Z,72.70
2022-09-28T21:48:33.989Z,73.30
2022-09-28T21:51:03.904Z,73.16
2022-09-28T21:53:33.258Z,73.13
2022-09-28T21:56:01.508Z,73.09
2022-09-28T21:58:30.860Z,74.25
2022-09-28T22:01:05.510Z,74.27
2022-09-28T22:03:33.878Z,74.08
2022-09-28T22:06:01.210Z,74.45
2022-09-28T22:08:28.143Z,74.88
2022-09-28T22:11:15.817Z,74.77
2022-09-28T22:13:47.431Z,75.14
2022-09-28T22:16:16.748Z,75.19
2022-09-28T22:18:44.313Z,75.47
2022-09-28T22:21:15.742Z,75.73
2022-09-28T22:23:42.705Z,75.72
2022-09-28T22:26:16.923Z,76.83
2022-09-28T22:28:49.546Z,76.59
2022-09-28T22:31:18.165Z,77.09
2022-09-28T22:33:45.150Z,76.97
2022-09-28T22:36:12.641Z,77.60
2022-09-28T22:38:39.471Z,78.26
2022-09-28T22:41:06.311Z,78.81
2022-09-28T22:43:33.112Z,79.66
2022-09-28T22:46:12.119Z,79.89
2022-09-28T22:48:40.068Z,80.90
2022-09-28T22:51:07.332Z,81.46
2022-09-28T22:53:35.694Z,81.30
2022-09-28T22:56:03.761Z,82.24
2022-09-28T22:58:30.617Z,81.84
2022-09-28T23:01:04.685Z,82.38
2022-09-28T23:03:31.535Z,82.98
2022-09-28T23:05:58.306Z,83.17
2022-09-28T23:08:25.148Z,82.87
2022-09-28T23:10:52.398Z,83.91
2022-09-28T23:13:20.244Z,83.88
2022-09-28T23:16:02.164Z,84.89
2022-09-28T23:18:31.932Z,85.21
2022-09-28T23:21:01.398Z,85.32
2022-09-28T23:23:29.215Z,85.86
2022-09-28T23:25:56.607Z,86.27
2022-09-28T23:28:25.487Z,87.10
2022-09-28T23:30:52.734Z,86.38
2022-09-28T23:33:21.525Z,87.19
2022-09-28T23:35:48.438Z,86.90
2022-09-28T23:38:17.630Z,87.53
2022-09-28T23:40:48.123Z,87.28
2022-09-28T23:43:15.048Z,87.23
2022-09-28T23:45:45.101Z,87.39
2022-09-28T23:48:12.309Z,87.12
2022-09-28T23:50:39.150Z,87.00
2022-09-28T23:53:05.918Z,87.77
2022-09-28T23:55:33.268Z,88.06
2022-09-28T23:58:00.217Z,88.70
